Time;durP1;ratioP1;P1;durP2;ratioP2;P2;SDS_P1;SDS_P2;PMS_P1;PMS_P2;Temp;Humidity;BMP_temperature;BMP_pressure;BME280_temperature;BME280_humidity;BME280_pressure;Samples;Min_cycle;Max_cycle;Signal;HPM_P1;HPM_P2
2022/07/31 00:01:08;;;;;;;2.22;1.90;;;25.40;52.50;;;;;;5006133;28;87478;-82
2022/07/31 00:03:37;;;;;;;2.00;1.83;;;25.30;52.40;;;;;;5006272;28;88517;-83
2022/07/31 00:06:02;;;;;;;3.10;2.30;;;25.30;52.60;;;;;;5006053;28;87897;-82
2022/07/31 00:08:28;;;;;;;3.72;1.95;;;25.30;52.40;;;;;;5006062;28;86966;-82
2022/07/31 00:10:53;;;;;;;2.33;2.13;;;25.30;52.50;;;;;;5006283;28;87580;-82
2022/07/31 00:13:19;;;;;;;2.13;1.92;;;25.30;52.50;;;;;;5006047;28;89863;-82
2022/07/31 00:15:45;;;;;;;4.40;2.15;;;25.30;52.50;;;;;;5006837;28;90122;-82
2022/07/31 00:18:10;;;;;;;2.67;2.00;;;25.30;52.60;;;;;;5007995;28;86878;-82
2022/07/31 00:20:36;;;;;;;2.70;2.20;;;25.30;52.40;;;;;;5006591;28;87361;-82
2022/07/31 00:23:02;;;;;;;3.65;2.00;;;25.30;52.50;;;;;;5005522;28;88667;-82
2022/07/31 00:25:27;;;;;;;2.08;1.80;;;25.30;52.60;;;;;;5007371;28;88482;-82
2022/07/31 00:27:53;;;;;;;2.33;1.80;;;25.30;52.50;;;;;;5005879;28;87263;-82
2022/07/31 00:30:18;;;;;;;3.63;2.30;;;25.30;52.40;;;;;;5008084;28;86534;-82
2022/07/31 00:32:44;;;;;;;3.08;2.00;;;25.30;52.50;;;;;;5005434;28;87661;-82
2022/07/31 00:35:12;;;;;;;2.05;1.90;;;25.30;52.50;;;;;;5005795;28;88015;-82
2022/07/31 00:37:40;;;;;;;2.25;2.05;;;25.30;52.50;;;;;;5004536;28;88325;-82
2022/07/31 00:40:08;;;;;;;2.28;1.58;;;25.30;52.60;;;;;;5006459;28;88206;-82
2022/07/31 00:42:33;;;;;;;2.47;1.70;;;25.30;52.40;;;;;;5006269;28;88507;-82
2022/07/31 00:44:59;;;;;;;2.08;1.88;;;25.30;52.50;;;;;;5008044;28;88004;-81
2022/07/31 00:47:26;;;;;;;1.98;1.77;;;25.20;52.40;;;;;;5007676;28;87517;-82
2022/07/31 00:49:52;;;;;;;1.88;1.75;;;25.30;52.50;;;;;;5006412;28;87279;-82
2022/07/31 00:52:18;;;;;;;2.50;1.98;;;25.30;52.60;;;;;;5005983;28;87573;-82
2022/07/31 00:54:43;;;;;;;2.33;2.13;;;25.30;52.60;;;;;;5005968;28;86969;-82
2022/07/31 00:57:09;;;;;;;2.40;2.20;;;25.30;52.50;;;;;;5004989;28;87266;-82
2022/07/31 00:59:35;;;;;;;2.63;2.20;;;25.20;52.40;;;;;;5005677;28;87241;-82
2022/07/31 01:02:00;;;;;;;2.55;2.35;;;25.20;52.50;;;;;;5004267;28;88514;-82
2022/07/31 01:04:26;;;;;;;2.03;1.80;;;25.20;52.60;;;;;;5005979;28;88005;-82
2022/07/31 01:06:53;;;;;;;1.90;1.80;;;25.30;52.70;;;;;;5005474;28;87590;-82
2022/07/31 01:09:19;;;;;;;3.55;2.13;;;25.20;52.40;;;;;;5005385;28;87514;-82
2022/07/31 01:11:52;;;;;;;2.25;2.00;;;25.20;52.60;;;;;;5005145;28;88270;-82
2022/07/31 01:14:20;;;;;;;2.40;2.13;;;25.20;52.50;;;;;;5002012;28;89138;-82
2022/07/31 01:16:50;;;;;;;3.50;2.05;;;25.20;52.50;;;;;;5005905;28;87343;-82
2022/07/31 01:19:39;;;;;;;2.00;1.80;;;25.20;52.40;;;;;;5008296;28;86906;-82
2022/07/31 01:22:26;;;;;;;2.10;1.90;;;25.20;52.40;;;;;;5007073;28;87329;-82
2022/07/31 01:24:57;;;;;;;2.67;2.20;;;25.20;52.60;;;;;;5005599;28;87507;-82
2022/07/31 01:27:31;;;;;;;2.53;2.03;;;25.20;52.50;;;;;;5005882;28;88389;-82
2022/07/31 01:30:00;;;;;;;2.20;2.00;;;25.20;52.40;;;;;;5005786;28;87344;-82
2022/07/31 01:32:31;;;;;;;;;;;25.20;52.50;;;;;;5004725;28;91198;-82
2022/07/31 01:35:19;;;;;;;2.22;1.85;;;25.20;52.60;;;;;;5006225;28;87678;-82
2022/07/31 01:37:51;;;;;;;2.30;2.10;;;25.20;52.40;;;;;;5005839;28;87460;-82
2022/07/31 01:40:34;;;;;;;2.33;1.98;;;25.20;52.40;;;;;;5007633;28;89261;-82
2022/07/31 01:43:05;;;;;;;1.70;1.60;;;25.20;52.30;;;;;;5009009;28;87282;-82
2022/07/31 01:45:32;;;;;;;2.08;1.83;;;25.20;52.50;;;;;;5040238;27;90272;-82
2022/07/31 01:48:00;;;;;;;2.75;2.03;;;25.20;52.50;;;;;;5009585;28;87017;-82
2022/07/31 01:50:26;;;;;;;2.60;1.95;;;25.20;52.40;;;;;;5007812;28;87049;-83
2022/07/31 01:52:57;;;;;;;1.92;1.80;;;25.20;52.30;;;;;;5004600;28;89430;-82
2022/07/31 01:55:24;;;;;;;2.45;1.65;;;25.20;52.40;;;;;;5005371;28;88574;-82
2022/07/31 01:57:50;;;;;;;2.17;1.73;;;25.20;52.40;;;;;;5008714;28;87082;-82
2022/07/31 02:00:17;;;;;;;2.58;2.17;;;25.20;52.40;;;;;;5023551;28;89057;-82
2022/07/31 02:02:46;;;;;;;2.78;1.92;;;25.10;52.40;;;;;;5008800;28;88441;-82
2022/07/31 02:05:12;;;;;;;1.60;1.50;;;25.20;52.40;;;;;;5007977;28;87821;-82
2022/07/31 02:07:40;;;;;;;2.67;2.00;;;25.20;52.50;;;;;;5009002;28;87277;-82
2022/07/31 02:10:07;;;;;;;2.08;1.88;;;25.10;52.30;;;;;;5009915;28;89327;-82
2022/07/31 02:12:34;;;;;;;1.83;1.67;;;25.20;52.50;;;;;;5008681;28;87771;-82
2022/07/31 02:15:08;;;;;;;2.08;1.92;;;25.10;52.40;;;;;;5008791;28;88671;-82
2022/07/31 02:17:35;;;;;;;2.30;2.10;;;25.10;52.30;;;;;;5009643;28;87976;-82
2022/07/31 02:20:04;;;;;;;2.35;2.05;;;25.10;52.40;;;;;;5011911;28;87351;-82
2022/07/31 02:22:37;;;;;;;1.80;1.70;;;25.10;52.40;;;;;;5008483;28;88199;-82
2022/07/31 02:25:05;;;;;;;2.42;1.92;;;25.10;52.40;;;;;;5009381;28;88434;-82
2022/07/31 02:27:31;;;;;;;2.17;1.52;;;25.10;52.50;;;;;;5008403;28;87177;-82
2022/07/31 02:30:01;;;;;;;2.13;1.92;;;25.10;52.30;;;;;;5007268;28;87176;-82
2022/07/31 02:32:28;;;;;;;2.40;2.03;;;25.10;53.10;;;;;;5008014;28;88580;-82
2022/07/31 02:34:55;;;;;;;1.70;1.60;;;25.10;52.60;;;;;;5009567;28;88142;-81
2022/07/31 02:37:25;;;;;;;1.70;1.60;;;25.10;52.50;;;;;;5007708;28;87562;-82
2022/07/31 02:39:53;;;;;;;1.95;1.77;;;25.10;52.50;;;;;;5007025;28;87508;-82
2022/07/31 02:42:20;;;;;;;1.90;1.80;;;25.10;52.40;;;;;;5007549;28;89613;-82
2022/07/31 02:44:46;;;;;;;2.05;1.88;;;25.10;52.40;;;;;;5007624;28;89104;-82
2022/07/31 02:47:13;;;;;;;1.98;1.77;;;25.10;52.50;;;;;;5010022;28;86960;-82
2022/07/31 02:49:40;;;;;;;2.08;1.60;;;25.10;52.50;;;;;;5005726;28;87482;-82
2022/07/31 02:52:05;;;;;;;2.17;1.98;;;25.10;52.50;;;;;;5007786;28;87222;-82
2022/07/31 02:54:33;;;;;;;2.42;2.22;;;25.10;52.50;;;;;;5008736;28;87914;-82
2022/07/31 02:57:01;;;;;;;1.88;1.77;;;25.10;52.50;;;;;;5006586;28;87352;-82
2022/07/31 02:59:27;;;;;;;1.77;1.67;;;25.10;52.40;;;;;;5010019;28;87640;-83
2022/07/31 03:01:53;;;;;;;1.65;1.55;;;25.10;52.30;;;;;;5007848;28;88391;-82
2022/07/31 03:04:19;;;;;;;1.60;1.50;;;25.00;52.30;;;;;;5039716;27;91397;-82
2022/07/31 03:06:47;;;;;;;1.95;1.70;;;25.10;52.30;;;;;;5008750;28;88251;-82
2022/07/31 03:09:15;;;;;;;1.88;1.60;;;25.10;52.40;;;;;;5007206;28;87357;-82
2022/07/31 03:11:41;;;;;;;1.90;1.80;;;25.00;52.30;;;;;;5007473;28;88260;-82
2022/07/31 03:14:09;;;;;;;1.85;1.75;;;25.00;52.30;;;;;;5006310;28;87639;-82
2022/07/31 03:16:36;;;;;;;1.85;1.60;;;25.00;52.40;;;;;;5006400;28;87396;-83
2022/07/31 03:19:03;;;;;;;1.90;1.80;;;25.00;52.30;;;;;;5008005;28;87931;-82
2022/07/31 03:21:30;;;;;;;1.95;1.75;;;25.00;52.40;;;;;;5008152;28;87788;-82
2022/07/31 03:23:56;;;;;;;1.67;1.58;;;25.00;52.40;;;;;;5005540;28;87071;-82
2022/07/31 03:26:22;;;;;;;1.90;1.70;;;25.00;52.30;;;;;;5006553;28;87458;-82
2022/07/31 03:28:47;;;;;;;2.15;1.95;;;25.00;52.40;;;;;;5006543;28;86998;-82
2022/07/31 03:31:13;;;;;;;1.70;1.60;;;25.00;52.30;;;;;;5007082;28;89127;-82
2022/07/31 03:33:39;;;;;;;2.33;2.03;;;25.00;52.40;;;;;;5006475;28;89710;-82
2022/07/31 03:36:07;;;;;;;2.10;1.90;;;25.00;52.40;;;;;;5008422;28;86949;-82
2022/07/31 03:38:33;;;;;;;;;;;25.00;52.40;;;;;;5006637;28;88627;-82
2022/07/31 03:40:59;;;;;;;2.20;1.65;;;25.00;52.50;;;;;;5008719;28;87653;-82
2022/07/31 03:43:26;;;;;;;2.17;1.80;;;25.00;52.50;;;;;;5006412;28;88171;-82
2022/07/31 03:45:52;;;;;;;1.83;1.60;;;25.00;52.50;;;;;;5007208;28;86990;-82
2022/07/31 03:48:19;;;;;;;1.95;1.85;;;25.00;52.50;;;;;;5007150;28;88171;-82
2022/07/31 03:50:45;;;;;;;1.77;1.67;;;25.00;52.50;;;;;;5006030;28;87709;-82
2022/07/31 03:53:11;;;;;;;1.92;1.75;;;25.00;52.50;;;;;;5020908;28;89253;-82
2022/07/31 03:55:38;;;;;;;3.00;1.65;;;25.00;52.50;;;;;;5008558;28;88182;-82
2022/07/31 03:58:05;;;;;;;1.70;1.60;;;25.00;52.50;;;;;;5005837;28;88331;-82
2022/07/31 04:00:31;;;;;;;1.60;1.50;;;25.00;52.50;;;;;;5006513;28;87456;-82
2022/07/31 04:03:03;;;;;;;1.65;1.55;;;25.00;52.50;;;;;;5006341;28;88946;-82
2022/07/31 04:05:28;;;;;;;1.70;1.60;;;25.00;52.50;;;;;;5009360;28;87493;-82
2022/07/31 04:07:54;;;;;;;1.77;1.67;;;25.00;52.50;;;;;;5005208;28;86974;-83
2022/07/31 04:10:19;;;;;;;1.75;1.60;;;25.00;52.40;;;;;;5004613;28;88110;-82
2022/07/31 04:12:45;;;;;;;1.75;1.65;;;25.00;52.40;;;;;;5006903;28;90029;-82
2022/07/31 04:15:11;;;;;;;1.58;1.48;;;25.00;52.50;;;;;;5006046;28;87488;-82
2022/07/31 04:17:36;;;;;;;1.98;1.80;;;24.90;52.50;;;;;;5007058;28;87332;-82
2022/07/31 04:20:07;;;;;;;1.88;1.77;;;25.00;52.60;;;;;;5039030;27;90477;-82
2022/07/31 04:22:33;;;;;;;2.72;2.13;;;25.00;52.60;;;;;;5007353;28;87814;-82
2022/07/31 04:24:58;;;;;;;1.77;1.67;;;25.00;52.60;;;;;;5006282;28;87326;-82
2022/07/31 04:27:24;;;;;;;1.88;1.70;;;25.00;52.60;;;;;;5005601;28;86952;-82
2022/07/31 04:29:49;;;;;;;1.88;1.75;;;25.00;52.70;;;;;;5006870;28;88543;-82
2022/07/31 04:32:15;;;;;;;1.80;1.70;;;24.90;52.70;;;;;;5037482;27;91585;-82
2022/07/31 04:34:41;;;;;;;1.63;1.52;;;25.00;52.50;;;;;;5007103;28;87583;-82
2022/07/31 04:37:07;;;;;;;1.83;1.70;;;25.00;52.60;;;;;;5007240;28;86166;-82
2022/07/31 04:39:33;;;;;;;1.95;1.60;;;24.90;52.60;;;;;;5006796;28;87945;-82
2022/07/31 04:41:59;;;;;;;1.60;1.50;;;24.90;52.60;;;;;;5009934;28;88329;-82
2022/07/31 04:44:24;;;;;;;1.50;1.40;;;25.00;52.60;;;;;;5005062;28;88378;-82
2022/07/31 04:46:50;;;;;;;1.50;1.40;;;24.90;52.50;;;;;;5007071;28;87350;-82
2022/07/31 04:49:16;;;;;;;2.35;2.08;;;24.90;52.60;;;;;;5007045;28;87517;-82
2022/07/31 04:51:42;;;;;;;2.40;1.95;;;24.90;52.50;;;;;;5003100;28;89968;-82
2022/07/31 04:54:09;;;;;;;1.75;1.65;;;25.00;52.50;;;;;;5005093;28;87421;-82
2022/07/31 04:56:36;;;;;;;2.30;1.73;;;24.90;52.50;;;;;;5006748;28;87300;-82
2022/07/31 04:59:22;;;;;;;1.65;1.42;;;24.90;52.60;;;;;;5005309;28;89602;-82
2022/07/31 05:01:49;;;;;;;1.70;1.60;;;24.90;52.60;;;;;;5005858;28;89271;-82
2022/07/31 05:04:16;;;;;;;1.70;1.60;;;24.90;52.50;;;;;;5004950;28;86876;-82
2022/07/31 05:06:47;;;;;;;1.63;1.40;;;24.90;52.60;;;;;;5006084;28;87431;-82
2022/07/31 05:09:15;;;;;;;1.63;1.52;;;24.90;52.60;;;;;;5003475;28;92604;-82
2022/07/31 05:11:41;;;;;;;1.77;1.67;;;24.90;52.60;;;;;;5003796;28;87049;-82
2022/07/31 05:14:10;;;;;;;3.97;2.00;;;24.90;52.50;;;;;;5005022;28;86937;-82
2022/07/31 05:16:36;;;;;;;1.60;1.50;;;24.90;52.60;;;;;;5006838;28;87655;-82
2022/07/31 05:19:03;;;;;;;1.73;1.63;;;24.90;52.50;;;;;;5002562;28;90298;-82
2022/07/31 05:21:29;;;;;;;1.80;1.67;;;24.90;52.50;;;;;;5005631;28;87632;-82
2022/07/31 05:23:56;;;;;;;1.90;1.70;;;24.90;52.50;;;;;;5007945;28;87243;-83
2022/07/31 05:26:22;;;;;;;1.60;1.50;;;24.90;52.60;;;;;;5006829;28;90735;-82
2022/07/31 05:28:56;;;;;;;1.80;1.70;;;24.90;52.40;;;;;;5005644;28;87732;-82
2022/07/31 05:31:22;;;;;;;1.60;1.50;;;24.90;52.50;;;;;;5006067;28;88418;-82
2022/07/31 05:33:49;;;;;;;1.85;1.75;;;24.90;52.80;;;;;;5006395;28;88549;-82
2022/07/31 05:36:15;;;;;;;1.90;1.58;;;24.90;52.60;;;;;;5006194;28;87432;-82
2022/07/31 05:38:41;;;;;;;1.98;1.77;;;24.90;52.70;;;;;;5005366;28;88586;-82
2022/07/31 05:41:07;;;;;;;2.08;1.70;;;24.90;52.60;;;;;;5004973;28;88831;-82
2022/07/31 05:43:34;;;;;;;1.80;1.70;;;24.90;52.80;;;;;;5009637;28;86964;-82
2022/07/31 05:45:59;;;;;;;2.03;1.73;;;24.90;52.80;;;;;;5005291;28;87400;-81
2022/07/31 05:48:25;;;;;;;2.45;1.95;;;24.90;52.50;;;;;;4997021;28;89174;-80
2022/07/31 05:50:51;;;;;;;2.45;1.80;;;24.90;51.80;;;;;;4993989;28;89631;-81
2022/07/31 05:53:18;;;;;;;2.08;1.92;;;24.90;51.50;;;;;;4999924;28;87262;-81
2022/07/31 05:55:45;;;;;;;4.70;1.70;;;24.90;52.00;;;;;;5000404;28;86956;-82
2022/07/31 05:58:13;;;;;;;2.10;1.90;;;24.90;52.00;;;;;;5002184;28;89107;-81
2022/07/31 06:00:40;;;;;;;3.65;1.95;;;24.90;52.40;;;;;;4998642;28;89108;-81
2022/07/31 06:03:06;;;;;;;3.05;1.60;;;24.90;52.60;;;;;;4999620;28;87622;-81
2022/07/31 06:05:32;;;;;;;2.25;2.05;;;24.90;52.50;;;;;;4998006;28;88736;-81
2022/07/31 06:08:01;;;;;;;3.28;1.90;;;24.90;53.70;;;;;;5003017;28;89189;-82
2022/07/31 06:10:27;;;;;;;2.20;2.00;;;24.90;52.90;;;;;;5000470;28;87288;-82
2022/07/31 06:12:53;;;;;;;2.13;1.92;;;24.90;53.20;;;;;;5000864;28;87774;-81
2022/07/31 06:15:19;;;;;;;3.75;2.28;;;24.90;53.30;;;;;;4999033;28;88251;-80
2022/07/31 06:17:45;;;;;;;3.55;2.25;;;24.90;53.30;;;;;;5001196;28;88121;-81
2022/07/31 06:20:11;;;;;;;2.20;2.00;;;24.90;53.30;;;;;;4999162;28;88141;-80
2022/07/31 06:22:38;;;;;;;3.33;2.08;;;24.90;53.60;;;;;;5002313;28;88690;-81
2022/07/31 06:25:08;;;;;;;2.58;2.08;;;24.90;53.50;;;;;;5003671;28;88580;-81
2022/07/31 06:27:34;;;;;;;5.47;2.40;;;25.00;53.40;;;;;;5002425;28;89201;-81
2022/07/31 06:30:00;;;;;;;2.40;2.20;;;24.90;53.40;;;;;;4999163;28;88267;-81
2022/07/31 06:32:26;;;;;;;2.85;2.15;;;24.90;53.50;;;;;;5007639;28;87339;-81
2022/07/31 06:34:51;;;;;;;4.03;2.33;;;24.90;53.70;;;;;;5000175;28;88195;-81
2022/07/31 06:37:18;;;;;;;3.78;2.35;;;24.90;53.70;;;;;;5003167;28;88102;-80
2022/07/31 06:39:43;;;;;;;3.33;2.17;;;24.90;53.80;;;;;;4998228;28;86969;-80
2022/07/31 06:42:09;;;;;;;2.70;2.15;;;24.90;53.80;;;;;;5004837;28;87451;-81
2022/07/31 06:44:34;;;;;;;2.72;2.20;;;24.90;53.60;;;;;;5000822;28;88250;-81
2022/07/31 06:47:00;;;;;;;2.10;1.95;;;24.90;53.60;;;;;;5002106;28;90641;-81
2022/07/31 06:49:26;;;;;;;2.90;2.10;;;24.90;53.60;;;;;;5003238;28;90526;-81
2022/07/31 06:51:52;;;;;;;2.25;2.05;;;24.90;53.60;;;;;;5002973;28;87066;-79
2022/07/31 06:54:17;;;;;;;2.30;2.10;;;24.90;53.60;;;;;;5003269;28;87129;-80
2022/07/31 06:56:43;;;;;;;2.60;2.15;;;24.90;53.50;;;;;;5003347;28;90180;-81
2022/07/31 06:59:11;;;;;;;2.40;2.20;;;24.90;53.70;;;;;;5001819;28;87730;-81
2022/07/31 07:01:37;;;;;;;2.30;2.10;;;25.00;53.90;;;;;;5001858;28;88022;-82
2022/07/31 07:04:03;;;;;;;5.47;1.90;;;25.00;53.70;;;;;;5001886;28;87112;-80
2022/07/31 07:06:28;;;;;;;6.78;2.13;;;25.00;54.10;;;;;;5004016;28;87185;-81
2022/07/31 07:08:54;;;;;;;4.03;1.90;;;24.90;54.80;;;;;;5007266;28;87296;-82
2022/07/31 07:11:20;;;;;;;6.57;2.00;;;25.00;55.10;;;;;;4997787;28;88422;-80
2022/07/31 07:13:46;;;;;;;4.80;2.03;;;25.00;55.20;;;;;;5004377;28;87846;-81
2022/07/31 07:16:13;;;;;;;4.72;1.90;;;24.90;55.60;;;;;;5001470;28;88622;-80
2022/07/31 07:18:39;;;;;;;18.85;4.28;;;25.00;55.20;;;;;;5000304;28;88223;-81
2022/07/31 07:21:04;;;;;;;15.65;4.13;;;25.00;55.30;;;;;;5005822;28;87678;-81
2022/07/31 07:23:30;;;;;;;43.10;8.38;;;25.00;55.50;;;;;;5000696;28;87361;-81
2022/07/31 07:25:56;;;;;;;23.40;5.88;;;25.00;55.90;;;;;;5001408;28;87460;-81
2022/07/31 07:28:22;;;;;;;34.25;6.72;;;25.00;55.70;;;;;;5001175;28;87863;-81
2022/07/31 07:30:47;;;;;;;31.33;7.30;;;25.00;56.10;;;;;;5003707;28;86966;-81
2022/07/31 07:33:13;;;;;;;25.75;7.70;;;25.00;56.70;;;;;;5000261;28;88740;-81
2022/07/31 07:35:39;;;;;;;25.48;5.95;;;25.00;56.60;;;;;;5001561;28;88771;-81
2022/07/31 07:38:04;;;;;;;24.45;6.30;;;25.00;56.60;;;;;;5001751;28;89177;-81
2022/07/31 07:40:30;;;;;;;17.75;5.45;;;25.10;56.40;;;;;;4962657;27;87356;-81
2022/07/31 07:42:56;;;;;;;15.68;5.00;;;25.00;56.80;;;;;;5022938;27;87264;-82
2022/07/31 07:45:22;;;;;;;20.50;5.55;;;25.00;57.50;;;;;;5023423;28;88991;-81
2022/07/31 07:47:47;;;;;;;15.63;5.03;;;25.00;57.10;;;;;;5021369;28;87697;-81
2022/07/31 07:50:14;;;;;;;15.88;5.30;;;25.10;57.30;;;;;;5020874;28;87527;-81
2022/07/31 07:52:40;;;;;;;14.80;5.30;;;25.10;57.20;;;;;;5024069;28;87360;-80
2022/07/31 07:55:07;;;;;;;20.48;5.38;;;25.10;57.30;;;;;;5018974;28;89975;-81
2022/07/31 07:57:34;;;;;;;14.38;5.75;;;25.10;57.40;;;;;;5021356;28;88193;-82
2022/07/31 08:00:02;;;;;;;14.00;4.70;;;25.10;57.20;;;;;;5022880;28;88192;-81
2022/07/31 08:02:28;;;;;;;10.82;4.30;;;25.10;57.10;;;;;;5024032;28;87464;-82
2022/07/31 08:04:53;;;;;;;8.25;4.18;;;25.10;57.20;;;;;;5021557;28;88324;-81
2022/07/31 08:07:30;;;;;;;12.48;4.00;;;25.10;57.10;;;;;;5023913;28;88339;-82
2022/07/31 08:09:57;;;;;;;10.27;4.00;;;25.20;56.90;;;;;;5023696;28;87393;-81
2022/07/31 08:12:23;;;;;;;10.15;3.58;;;25.20;56.90;;;;;;5020714;28;87527;-81
2022/07/31 08:14:49;;;;;;;10.90;4.22;;;25.20;56.90;;;;;;5022037;28;88499;-82
2022/07/31 08:17:15;;;;;;;7.57;3.58;;;25.20;56.80;;;;;;5020490;28;87322;-81
2022/07/31 08:19:40;;;;;;;7.80;3.47;;;25.20;56.90;;;;;;5022259;28;87709;-82
2022/07/31 08:22:07;;;;;;;9.75;3.08;;;25.20;56.90;;;;;;5022073;28;88976;-82
2022/07/31 08:24:32;;;;;;;6.18;3.35;;;25.20;56.90;;;;;;5021095;28;88378;-81
2022/07/31 08:29:44;;;;;;;7.95;3.67;;;25.20;56.90;;;;;;5024328;28;88003;-81
2022/07/31 08:32:10;;;;;;;6.68;3.60;;;25.20;56.70;;;;;;5023153;28;87269;-82
2022/07/31 08:34:35;;;;;;;4.47;3.40;;;25.20;56.90;;;;;;5022504;28;89993;-81
2022/07/31 08:37:02;;;;;;;7.18;3.13;;;25.20;56.80;;;;;;5024727;28;87520;-81
2022/07/31 08:39:28;;;;;;;4.85;2.90;;;25.20;56.60;;;;;;5023292;27;87533;-81
2022/07/31 08:41:54;;;;;;;5.72;3.28;;;25.20;56.70;;;;;;5019246;28;88713;-81
2022/07/31 08:44:20;;;;;;;5.68;3.47;;;25.20;56.70;;;;;;5022516;28;87985;-81
2022/07/31 08:46:46;;;;;;;5.05;3.03;;;25.20;56.60;;;;;;5022537;27;87841;-81
2022/07/31 08:49:15;;;;;;;3.50;2.90;;;25.20;56.50;;;;;;5019949;28;88056;-81
2022/07/31 08:51:43;;;;;;;5.20;3.08;;;25.30;56.50;;;;;;5018873;28;88531;-82
2022/07/31 08:54:09;;;;;;;4.00;2.97;;;25.30;56.70;;;;;;5021378;28;88462;-82
2022/07/31 08:56:36;;;;;;;4.35;2.58;;;25.30;56.50;;;;;;5020244;28;91517;-82
2022/07/31 08:59:03;;;;;;;3.65;3.13;;;25.30;56.50;;;;;;5021821;28;87369;-81
2022/07/31 09:01:31;;;;;;;4.55;2.92;;;25.40;56.70;;;;;;5019643;28;88794;-82
2022/07/31 09:03:58;;;;;;;6.50;3.10;;;25.40;56.50;;;;;;5021253;28;89719;-81
2022/07/31 09:06:24;;;;;;;3.97;3.00;;;25.30;56.50;;;;;;5020282;27;87754;-81
2022/07/31 09:08:49;;;;;;;6.25;3.10;;;25.40;56.70;;;;;;5052532;27;87245;-81
2022/07/31 09:11:15;;;;;;;4.72;3.30;;;25.40;57.00;;;;;;5021027;28;87191;-81
2022/07/31 09:14:02;;;;;;;4.25;2.97;;;25.40;57.00;;;;;;5017489;28;89545;-81
2022/07/31 09:16:29;;;;;;;4.70;3.35;;;25.40;56.90;;;;;;5018818;27;90768;-80
2022/07/31 09:19:03;;;;;;;3.40;3.08;;;25.40;56.90;;;;;;5022692;28;87105;-81
2022/07/31 09:21:39;;;;;;;5.35;3.75;;;25.40;57.00;;;;;;5018985;28;87050;-81
2022/07/31 09:24:06;;;;;;;4.15;3.78;;;25.40;57.10;;;;;;4999249;28;88609;-81
2022/07/31 09:26:33;;;;;;;3.63;3.22;;;25.50;57.10;;;;;;5051368;27;87722;-81
2022/07/31 09:29:01;;;;;;;4.68;3.67;;;25.40;57.20;;;;;;5018843;28;87702;-80
2022/07/31 09:31:34;;;;;;;10.05;4.55;;;25.40;57.30;;;;;;5023927;28;87320;-81
2022/07/31 09:34:00;;;;;;;5.38;3.92;;;25.30;57.20;;;;;;5018276;28;88391;-81
2022/07/31 09:36:26;;;;;;;6.10;4.40;;;25.30;57.20;;;;;;5021802;28;87863;-81
2022/07/31 09:38:52;;;;;;;15.98;4.53;;;25.30;57.20;;;;;;5022225;28;88061;-81
2022/07/31 09:41:20;;;;;;;7.38;4.43;;;25.40;57.60;;;;;;5020857;28;87354;-81
2022/07/31 09:43:56;;;;;;;7.07;5.05;;;25.40;57.40;;;;;;5020625;28;87619;-81
2022/07/31 09:46:21;;;;;;;4.57;4.18;;;25.40;57.60;;;;;;5016953;28;87190;-81
2022/07/31 09:48:52;;;;;;;9.00;4.30;;;25.40;57.50;;;;;;5020744;28;87442;-82
2022/07/31 09:51:18;;;;;;;4.72;4.18;;;25.30;57.60;;;;;;5020130;28;88043;-81
2022/07/31 09:53:46;;;;;;;5.30;4.38;;;25.40;57.80;;;;;;5019968;28;88127;-81
2022/07/31 09:56:14;;;;;;;5.05;4.30;;;25.40;57.70;;;;;;5023454;28;89016;-81
2022/07/31 09:58:41;;;;;;;7.68;4.40;;;25.40;57.60;;;;;;5025250;28;87091;-82
2022/07/31 10:01:11;;;;;;;5.07;4.60;;;25.50;57.50;;;;;;5025086;28;89257;-81
2022/07/31 10:03:38;;;;;;;5.10;4.43;;;25.50;57.80;;;;;;5025644;28;88998;-81
2022/07/31 10:06:07;;;;;;;5.43;4.30;;;25.50;57.60;;;;;;5027141;27;87393;-81
2022/07/31 10:08:35;;;;;;;4.23;3.93;;;25.50;57.40;;;;;;5022266;28;87356;-81
2022/07/31 10:11:03;;;;;;;4.78;3.92;;;25.50;57.30;;;;;;5023654;28;87281;-81
2022/07/31 10:13:31;;;;;;;4.20;3.80;;;25.50;57.20;;;;;;5031849;28;90431;-81
2022/07/31 10:15:59;;;;;;;5.40;3.25;;;25.50;57.00;;;;;;5021255;27;88263;-81
2022/07/31 10:18:35;;;;;;;5.13;3.95;;;25.60;57.40;;;;;;5025983;28;87434;-82
2022/07/31 10:21:03;;;;;;;5.15;3.75;;;25.60;57.20;;;;;;5025312;28;86909;-81
2022/07/31 10:23:32;;;;;;;6.85;3.55;;;25.60;56.80;;;;;;5022658;28;87741;-81
2022/07/31 10:25:59;;;;;;;4.45;3.53;;;25.60;56.60;;;;;;5024465;28;86946;-81
2022/07/31 10:28:28;;;;;;;5.60;3.40;;;25.70;57.10;;;;;;5024909;28;88456;-83
2022/07/31 10:30:54;;;;;;;9.07;3.55;;;25.70;56.50;;;;;;5025172;28;87346;-81
2022/07/31 10:33:20;;;;;;;4.78;3.38;;;25.70;56.50;;;;;;5022603;28;91255;-82
2022/07/31 10:36:05;;;;;;;3.53;3.20;;;25.70;56.10;;;;;;5027195;28;87871;-81
2022/07/31 10:38:35;;;;;;;5.45;3.05;;;25.70;56.10;;;;;;5026712;27;87492;-82
2022/07/31 10:41:16;;;;;;;7.25;3.38;;;25.70;55.90;;;;;;5025157;28;87326;-81
2022/07/31 10:43:53;;;;;;;7.90;3.30;;;25.70;56.00;;;;;;5024220;28;89368;-81
2022/07/31 10:46:29;;;;;;;5.68;2.75;;;25.70;55.90;;;;;;5021564;28;87267;-81
2022/07/31 10:48:55;;;;;;;4.93;2.90;;;25.70;55.80;;;;;;5025712;28;87031;-81
2022/07/31 10:51:22;;;;;;;6.80;3.00;;;25.70;55.90;;;;;;5024796;28;87674;-82
2022/07/31 10:54:04;;;;;;;8.63;3.50;;;25.60;56.10;;;;;;5024178;28;89164;-82
2022/07/31 10:56:41;;;;;;;5.18;3.40;;;25.60;56.60;;;;;;5022208;27;88640;-82
2022/07/31 10:59:07;;;;;;;5.43;3.55;;;25.50;56.80;;;;;;5025042;28;87586;-82
2022/07/31 11:01:32;;;;;;;14.20;4.35;;;25.60;57.20;;;;;;5027196;28;87540;-85
2022/07/31 11:04:00;;;;;;;8.93;3.85;;;25.60;57.60;;;;;;5028782;28;88101;-85
2022/07/31 11:06:40;;;;;;;11.25;4.43;;;25.60;57.50;;;;;;5029001;28;88857;-82
2022/07/31 11:09:06;;;;;;;6.10;3.80;;;25.60;57.70;;;;;;5024765;28;87313;-82
2022/07/31 11:11:34;;;;;;;8.43;3.90;;;25.60;57.40;;;;;;5024747;28;87581;-82
2022/07/31 11:13:59;;;;;;;9.75;4.57;;;25.60;57.50;;;;;;5025945;28;87552;-82
2022/07/31 11:16:28;;;;;;;7.07;3.75;;;25.60;57.30;;;;;;5026198;28;87842;-82
2022/07/31 11:19:00;;;;;;;10.45;4.43;;;25.70;57.60;;;;;;5022730;28;88375;-82
2022/07/31 11:21:56;;;;;;;9.57;4.10;;;25.70;57.50;;;;;;5023724;28;87170;-81
2022/07/31 11:24:22;;;;;;;8.93;4.47;;;25.70;57.60;;;;;;5032053;28;90071;-83
2022/07/31 11:26:49;;;;;;;8.63;4.50;;;25.70;57.50;;;;;;5033111;28;88567;-82
2022/07/31 11:29:28;;;;;;;8.32;3.97;;;25.80;57.30;;;;;;5033201;28;87649;-82
2022/07/31 11:31:54;;;;;;;9.85;4.38;;;25.70;57.40;;;;;;5033307;28;87055;-83
2022/07/31 11:34:19;;;;;;;10.73;4.25;;;25.70;57.30;;;;;;5032462;28;89028;-82
2022/07/31 11:36:45;;;;;;;7.35;4.30;;;25.60;57.40;;;;;;5034061;27;88468;-82
2022/07/31 11:39:11;;;;;;;8.60;4.63;;;25.60;57.40;;;;;;5033724;28;87096;-82
2022/07/31 11:41:37;;;;;;;6.45;4.03;;;25.60;57.60;;;;;;5033263;28;87604;-82
2022/07/31 11:44:03;;;;;;;10.60;4.75;;;25.60;57.60;;;;;;5033151;28;89136;-82
2022/07/31 11:46:32;;;;;;;10.05;4.80;;;25.60;57.50;;;;;;5033133;28;88101;-82
2022/07/31 11:48:59;;;;;;;11.80;4.87;;;25.60;57.50;;;;;;5033468;28;87129;-82
2022/07/31 11:51:26;;;;;;;8.98;4.57;;;25.60;57.40;;;;;;5034061;28;87804;-82
2022/07/31 11:53:54;;;;;;;8.65;4.88;;;25.60;57.40;;;;;;5034001;28;88842;-82
2022/07/31 11:56:20;;;;;;;8.10;4.22;;;25.60;57.50;;;;;;5033470;28;86897;-82
2022/07/31 11:58:50;;;;;;;9.05;4.55;;;25.60;57.50;;;;;;5034263;28;87353;-83
2022/07/31 12:01:17;;;;;;;7.82;4.70;;;25.60;57.50;;;;;;5018867;28;89726;-82
2022/07/31 12:03:43;;;;;;;8.40;4.82;;;25.50;57.40;;;;;;5026543;28;87757;-83
2022/07/31 12:06:10;;;;;;;7.10;4.43;;;25.50;57.30;;;;;;5024994;28;87730;-82
2022/07/31 12:08:37;;;;;;;11.05;4.75;;;25.50;57.50;;;;;;5026606;28;88336;-82
2022/07/31 12:11:06;;;;;;;9.95;5.10;;;25.50;57.40;;;;;;5025644;28;87723;-81
2022/07/31 12:13:32;;;;;;;9.27;4.80;;;25.50;57.50;;;;;;5023223;28;91026;-82
2022/07/31 12:16:03;;;;;;;9.10;5.03;;;25.60;57.40;;;;;;5026670;28;88120;-82
2022/07/31 12:18:48;;;;;;;10.13;4.70;;;25.50;57.40;;;;;;5033541;28;87536;-82
2022/07/31 12:21:15;;;;;;;12.20;4.68;;;25.50;57.30;;;;;;5024112;28;87460;-82
2022/07/31 12:23:48;;;;;;;9.05;4.63;;;25.60;57.30;;;;;;5039368;27;90730;-82
2022/07/31 12:26:48;;;;;;;6.90;4.65;;;25.50;57.20;;;;;;5024329;28;91070;-82
2022/07/31 12:29:14;;;;;;;7.28;4.57;;;25.50;57.00;;;;;;5012949;28;87623;-82
2022/07/31 12:31:51;;;;;;;9.35;5.03;;;25.50;57.10;;;;;;5012531;28;88074;-82
2022/07/31 12:34:33;;;;;;;8.18;5.00;;;25.50;57.00;;;;;;5012326;28;89407;-82
2022/07/31 12:37:14;;;;;;;7.03;4.80;;;25.50;56.90;;;;;;5012306;28;88844;-82
2022/07/31 12:39:45;;;;;;;9.05;4.63;;;25.50;57.00;;;;;;5011999;28;87149;-82
2022/07/31 12:42:24;;;;;;;6.45;4.13;;;25.50;57.10;;;;;;5012637;28;87428;-82
2022/07/31 12:44:51;;;;;;;7.50;4.15;;;25.50;57.10;;;;;;4995457;28;89936;-82
2022/07/31 12:47:24;;;;;;;10.98;5.13;;;25.50;57.00;;;;;;5012413;28;88023;-82
2022/07/31 12:49:50;;;;;;;6.78;4.28;;;25.50;57.10;;;;;;5012500;28;87758;-82
2022/07/31 12:52:16;;;;;;;9.10;5.13;;;25.50;57.00;;;;;;5012261;28;87849;-82